Bookmark and Share
Track history (hours):
 

Atlantic Nyala

Last reported at 2014-Apr-18 02:08 UTC. Time now 2014-Apr-23 15:31 UTC.
Position N 58°35' W 006°41'.

Length 173 m; draft 9.7 m.

Type: Ship. MMSI: 249692000.

NotesDate/timePositionNaut miles runAvg speedWind from/ knotsBaromVisibWave heightAir tempDewpointWater temp
2014-Apr-18 02:08N 58°35' W 006°41'1912.2
2014-Apr-18 00:33N 58°41' W 006°05'1211.8
2014-Apr-17 23:33N 58°42' W 005°42'3310.1
2014-Apr-17 20:18N 58°43' W 004°39'6 8.7
2014-Apr-17 19:33N 58°43' W 004°27'9 9.0
2014-Apr-17 18:34N 58°43' W 004°10'10 9.7
2014-Apr-17 17:34N 58°43' W 003°51'1010.3
2014-Apr-17 16:33N 58°43' W 003°31'1313.4
2014-Apr-17 15:33N 58°43' W 003°05'1615.7
2014-Apr-17 14:33N 58°42' W 002°35'27112.8
2014-Apr-16 17:27N 57°53' E 005°52'9814.1
2014-Apr-16 10:32N 57°49' E 008°55'1813.8
2014-Apr-16 09:13N 57°51' E 009°29'2313.7
2014-Apr-16 07:34N 57°52' E 010°12'1413.7
2014-Apr-16 06:33N 57°52' E 010°37'1514.5
2014-Apr-16 05:33N 57°43' E 010°58'1414.3
2014-Apr-16 04:33N 57°33' E 011°18'1413.5
2014-Apr-16 03:33N 57°22' E 011°31'1414.2
2014-Apr-16 02:33N 57°08' E 011°40'1414.5
2014-Apr-16 01:34N 56°55' E 011°49'1313.4
2014-Apr-16 00:34N 56°41' E 011°51'1414.3
2014-Apr-15 23:33N 56°29' E 011°39'1714.0
2014-Apr-15 22:20N 56°14' E 011°22'1113.8
2014-Apr-15 21:33N 56°06' E 011°09'94 9.4
2014-Apr-15 11:34N 54°32' E 011°24'1313.3
2014-Apr-15 10:34N 54°27' E 011°45'1413.6
2014-Apr-15 09:34N 54°27' E 012°09'1313.5
2014-Apr-15 08:34N 54°38' E 012°21'2814.2
2014-Apr-15 06:34N 54°51' E 013°05'1514.6
2014-Apr-15 05:34N 54°56' E 013°29'2914.4
2014-Apr-15 03:34N 55°10' E 014°12'1515.3
2014-Apr-15 02:34N 55°22' E 014°29'1515.0
2014-Apr-15 01:34N 55°31' E 014°51'1514.9
2014-Apr-15 00:34N 55°39' E 015°13'1515.0
2014-Apr-14 23:34N 55°46' E 015°37'1515.0
2014-Apr-14 22:34N 55°53' E 015°60'1515.0
2014-Apr-14 21:34N 56°01' E 016°23'1514.9
2014-Apr-14 20:33N 56°09' E 016°46'32214.6
2014-Apr-13 22:32N 59°46' E 024°15'1414.1
2014-Apr-13 21:33N 59°49' E 024°42'5714.1
2014-Apr-13 17:32N 60°01' E 026°32'10812.0
2014-Apr-13 08:32N 59°54' E 030°07'3 0.1
2014-Apr-12 09:27N 59°54' E 030°14'1 0.8
2014-Apr-12 08:29N 59°55' E 030°15'0 0.0
2014-Apr-12 07:32N 59°55' E 030°15'0 0.0
2014-Apr-12 06:32N 59°55' E 030°15'0 0.0
2014-Apr-12 05:32N 59°55' E 030°15'0 0.0
2014-Apr-12 04:29N 59°55' E 030°15'0 0.0
2014-Apr-12 03:29N 59°55' E 030°15'0 0.0
2014-Apr-12 02:29N 59°55' E 030°15'0 0.0
2014-Apr-12 01:32N 59°55' E 030°15'0 0.0
2014-Apr-12 00:32N 59°55' E 030°15'0 0.0
2014-Apr-11 23:29N 59°55' E 030°15'0 0.0
2014-Apr-11 22:23N 59°55' E 030°15'0 0.0
2014-Apr-11 21:32N 59°55' E 030°15'0 0.0
2014-Apr-11 20:32N 59°55' E 030°15'0 0.0
2014-Apr-11 19:32N 59°55' E 030°15'0 0.0
2014-Apr-11 18:32N 59°55' E 030°15'0 0.0
2014-Apr-11 17:29N 59°55' E 030°15'0 0.0
2014-Apr-11 16:32N 59°55' E 030°15'0 0.0
2014-Apr-11 15:29N 59°55' E 030°15'0 0.0
2014-Apr-11 14:32N 59°55' E 030°15'0 0.0
2014-Apr-11 13:29N 59°55' E 030°15'0 0.0
2014-Apr-11 12:32N 59°55' E 030°15'0 0.0
2014-Apr-11 11:32N 59°55' E 030°15'0 0.0
2014-Apr-11 10:32N 59°55' E 030°15'0 0.0
2014-Apr-11 09:32N 59°55' E 030°15'0 0.0
2014-Apr-11 08:29N 59°55' E 030°15'0 0.0
2014-Apr-11 07:29N 59°55' E 030°15'0 0.0
2014-Apr-11 06:29N 59°55' E 030°15'0 0.0
2014-Apr-11 05:29N 59°55' E 030°15'0 0.0
2014-Apr-11 04:32N 59°55' E 030°15'0 0.0
2014-Apr-11 03:29N 59°55' E 030°15'0 0.0
2014-Apr-11 02:32N 59°55' E 030°15'0 0.0
2014-Apr-11 01:32N 59°55' E 030°15'0 0.0
2014-Apr-11 00:32N 59°55' E 030°15'0 0.0
2014-Apr-10 23:32N 59°55' E 030°15'0 0.0
2014-Apr-10 22:29N 59°55' E 030°15'0 0.0
2014-Apr-10 21:29N 59°55' E 030°15'0 0.0
2014-Apr-10 20:32N 59°55' E 030°15'0 0.0
2014-Apr-10 19:29N 59°55' E 030°15'0 0.0
2014-Apr-10 18:29N 59°55' E 030°15'0 0.0
2014-Apr-10 17:32N 59°55' E 030°15'0 0.0
2014-Apr-10 16:23N 59°55' E 030°15'0 0.0
2014-Apr-10 15:32N 59°55' E 030°15'0 0.0
2014-Apr-10 14:29N 59°55' E 030°15'0 0.0
2014-Apr-10 13:29N 59°55' E 030°15'0 0.0
2014-Apr-10 12:11N 59°55' E 030°15'0 0.0
2014-Apr-10 11:32N 59°55' E 030°15'0 0.0
2014-Apr-10 10:26N 59°55' E 030°15'0 0.0
2014-Apr-10 09:32N 59°55' E 030°15'0 0.0
2014-Apr-10 08:26N 59°55' E 030°15'0 0.0
2014-Apr-10 07:29N 59°55' E 030°15'0 0.0
2014-Apr-10 06:29N 59°55' E 030°15'0 0.0
2014-Apr-10 05:29N 59°55' E 030°15'0 0.0
2014-Apr-10 04:29N 59°55' E 030°15'0 0.0
2014-Apr-10 03:29N 59°55' E 030°15'0 0.0
2014-Apr-10 02:32N 59°55' E 030°15'0 0.0
2014-Apr-10 01:26N 59°55' E 030°15'0 0.0
2014-Apr-10 00:29N 59°55' E 030°15'0 0.0
2014-Apr-09 23:29N 59°55' E 030°15'0 0.0
2014-Apr-09 22:29N 59°55' E 030°15'0 0.0
2014-Apr-09 21:29N 59°55' E 030°15'0 0.0
2014-Apr-09 20:29N 59°55' E 030°15'0 0.0
2014-Apr-09 19:29N 59°55' E 030°15'0 0.0
2014-Apr-09 18:29N 59°55' E 030°15'0 0.0
2014-Apr-09 17:29N 59°55' E 030°15'0 0.0
2014-Apr-09 16:29N 59°55' E 030°15'0 0.0
2014-Apr-09 15:29N 59°55' E 030°15'0 0.0
2014-Apr-09 14:32N 59°55' E 030°15'0 0.0
2014-Apr-09 13:32N 59°55' E 030°15'0 0.0
2014-Apr-09 12:29N 59°55' E 030°15'0 0.0
2014-Apr-09 11:29N 59°55' E 030°15'0 0.0
2014-Apr-09 10:29N 59°55' E 030°15'0 0.0
2014-Apr-09 09:32N 59°55' E 030°15'0 0.0
2014-Apr-09 08:29N 59°55' E 030°15'0 0.0
2014-Apr-09 07:32N 59°55' E 030°15'0 0.0
2014-Apr-09 06:29N 59°55' E 030°15'0 0.0
2014-Apr-09 05:32N 59°55' E 030°15'0 0.0
2014-Apr-09 04:29N 59°55' E 030°15'0 0.0
2014-Apr-09 03:29N 59°55' E 030°15'0 0.0
2014-Apr-09 02:32N 59°55' E 030°15'0 0.0
2014-Apr-09 01:29N 59°55' E 030°15'0 0.0
2014-Apr-09 00:29N 59°55' E 030°15'0 0.0
2014-Apr-08 23:32N 59°55' E 030°15'0 0.0
2014-Apr-08 22:32N 59°55' E 030°15'0 0.0
2014-Apr-08 21:32N 59°55' E 030°15'0 0.0
2014-Apr-08 20:32N 59°55' E 030°15'0 0.0
2014-Apr-08 19:32N 59°55' E 030°15'0 0.0
2014-Apr-08 18:29N 59°55' E 030°15'0 0.0
2014-Apr-08 17:29N 59°55' E 030°15'0 0.0
2014-Apr-08 16:32N 59°55' E 030°15'0 0.0
2014-Apr-08 15:29N 59°55' E 030°15'0 0.0
2014-Apr-08 14:29N 59°55' E 030°15'0 0.0
2014-Apr-08 13:32N 59°55' E 030°15'0 0.0
2014-Apr-08 12:32N 59°55' E 030°15'0 0.0
2014-Apr-08 11:32N 59°55' E 030°15'0 0.0
2014-Apr-08 10:32N 59°55' E 030°15'0 0.0
2014-Apr-08 09:32N 59°55' E 030°15'0 0.0
2014-Apr-08 08:32N 59°55' E 030°15'0 0.0
2014-Apr-08 07:32N 59°55' E 030°15'0 0.0
2014-Apr-08 06:29N 59°55' E 030°15'0 0.0
2014-Apr-08 05:29N 59°55' E 030°15'0 0.0
2014-Apr-08 04:29N 59°55' E 030°15'0 0.0
2014-Apr-08 03:29N 59°55' E 030°15'0 0.0
2014-Apr-08 02:23N 59°55' E 030°15'  

Dump ship's entire track history

sailing weather and tide predictions

Atlantic Nyala — 9HYD9 — position and weather